Time;durP1;ratioP1;P1;durP2;ratioP2;P2;SDS_P1;SDS_P2;PMS_P1;PMS_P2;Temp;Humidity;BMP_temperature;BMP_pressure;BME280_temperature;BME280_humidity;BME280_pressure;Samples;Min_cycle;Max_cycle;Signal;HPM_P1;HPM_P2
2023/11/08 00:01:57;;;;;;;1.23;1.10;;;;;;;2.87;100.00;92610.59;6146124;23;20021;-77
2023/11/08 00:04:23;;;;;;;2.95;1.50;;;;;;;2.93;100.00;92609.66;6146045;23;20001;-76
2023/11/08 00:06:49;;;;;;;2.80;1.40;;;;;;;2.95;100.00;92611.97;6144449;23;20052;-76
2023/11/08 00:09:14;;;;;;;1.83;1.17;;;;;;;2.93;100.00;92614.81;6145900;23;20091;-77
2023/11/08 00:11:41;;;;;;;2.58;1.30;;;;;;;2.89;100.00;92618.91;6145780;23;20443;-75
2023/11/08 00:14:08;;;;;;;1.67;1.15;;;;;;;2.82;100.00;92615.69;6146594;23;20070;-76
2023/11/08 00:16:34;;;;;;;1.73;1.27;;;;;;;2.77;100.00;92615.59;6146109;23;20010;-77
2023/11/08 00:19:00;;;;;;;2.08;1.30;;;;;;;2.71;100.00;92625.84;6146543;23;20077;-76
2023/11/08 00:21:28;;;;;;;2.10;1.48;;;;;;;2.70;100.00;92616.53;6146192;23;20477;-77
2023/11/08 00:23:54;;;;;;;3.00;1.50;;;;;;;2.68;100.00;92620.38;6146110;23;20375;-77
2023/11/08 00:26:20;;;;;;;2.95;1.65;;;;;;;2.65;100.00;92613.84;6146349;23;20001;-77
2023/11/08 00:28:47;;;;;;;3.17;1.50;;;;;;;2.65;100.00;92616.44;6120380;23;20102;-77
2023/11/08 00:31:13;;;;;;;4.90;1.88;;;;;;;2.66;100.00;92619.84;6145881;23;20021;-77
2023/11/08 00:33:39;;;;;;;3.80;1.70;;;;;;;2.66;100.00;92618.03;6145907;23;20021;-77
2023/11/08 00:36:05;;;;;;;2.80;1.70;;;;;;;2.66;100.00;92623.19;6146430;23;20018;-76
2023/11/08 00:38:31;;;;;;;3.20;1.60;;;;;;;2.65;100.00;92620.84;6144599;23;20009;-77
2023/11/08 00:40:57;;;;;;;3.65;1.80;;;;;;;2.62;100.00;92619.50;6145333;23;20329;-77
2023/11/08 00:43:23;;;;;;;2.22;1.45;;;;;;;2.61;100.00;92628.28;6146774;23;20021;-77
2023/11/08 00:45:49;;;;;;;3.10;1.75;;;;;;;2.58;100.00;92622.78;6144462;23;20358;-77
2023/11/08 00:48:14;;;;;;;2.90;1.70;;;;;;;2.57;100.00;92626.38;6144715;23;20024;-76
2023/11/08 00:50:40;;;;;;;4.65;1.90;;;;;;;2.53;100.00;92622.72;6145955;23;20024;-77
2023/11/08 00:53:06;;;;;;;2.78;1.63;;;;;;;2.50;100.00;92622.16;6146512;23;20473;-77
2023/11/08 00:55:32;;;;;;;2.47;1.40;;;;;;;2.52;100.00;92624.50;6146653;23;20028;-76
2023/11/08 00:57:58;;;;;;;4.50;1.80;;;;;;;2.54;100.00;92621.69;6146127;23;20453;-76
2023/11/08 01:00:24;;;;;;;2.28;1.30;;;;;;;2.51;100.00;92620.34;6146315;23;20236;-77
2023/11/08 01:02:50;;;;;;;2.83;1.60;;;;;;;2.49;100.00;92619.81;6147759;23;20060;-77
2023/11/08 01:05:16;;;;;;;3.42;1.55;;;;;;;2.49;100.00;92625.75;6146829;23;20082;-76
2023/11/08 01:07:41;;;;;;;1.48;1.17;;;;;;;2.52;100.00;92619.31;6146625;23;20020;-77
2023/11/08 01:10:08;;;;;;;3.20;1.30;;;;;;;2.58;100.00;92622.78;6144648;23;20002;-77
2023/11/08 01:12:34;;;;;;;2.22;1.33;;;;;;;2.63;100.00;92625.44;6144369;23;20320;-77
2023/11/08 01:15:00;;;;;;;2.50;1.20;;;;;;;2.70;100.00;92620.91;6146480;23;20017;-77
2023/11/08 01:17:26;;;;;;;1.17;1.00;;;;;;;2.79;100.00;92610.97;6146622;23;20067;-77
2023/11/08 01:19:52;;;;;;;1.10;1.00;;;;;;;2.96;100.00;92614.34;6146917;23;20195;-77
2023/11/08 01:22:18;;;;;;;1.23;1.10;;;;;;;3.08;100.00;92616.84;6147248;23;20013;-77
2023/11/08 01:24:43;;;;;;;1.20;0.90;;;;;;;3.22;100.00;92617.28;6146645;23;20417;-76
2023/11/08 01:27:09;;;;;;;1.40;1.10;;;;;;;3.29;100.00;92621.28;6145154;23;20044;-77
2023/11/08 01:29:35;;;;;;;1.83;0.90;;;;;;;3.34;100.00;92612.81;6146050;23;20022;-76
2023/11/08 01:32:02;;;;;;;1.13;0.95;;;;;;;3.41;100.00;92612.66;6147043;23;20040;-74
2023/11/08 01:34:28;;;;;;;1.38;1.27;;;;;;;3.48;100.00;92615.84;6145702;23;20001;-77
2023/11/08 01:36:53;;;;;;;1.42;1.00;;;;;;;3.58;100.00;92610.00;6146877;23;20356;-76
2023/11/08 01:39:19;;;;;;;2.42;1.10;;;;;;;3.71;100.00;92609.66;6144393;23;20025;-77
2023/11/08 01:41:48;;;;;;;1.02;0.93;;;;;;;3.83;100.00;92607.75;6144510;23;20097;-76
2023/11/08 01:44:19;;;;;;;1.50;1.00;;;;;;;3.97;100.00;92605.56;6121398;23;20039;-76
2023/11/08 01:46:49;;;;;;;1.10;1.00;;;;;;;3.93;100.00;92612.25;6144845;23;20014;-77
2023/11/08 01:49:15;;;;;;;1.00;0.90;;;;;;;3.96;100.00;92609.97;6145186;23;20018;-76
2023/11/08 01:51:41;;;;;;;0.98;0.90;;;;;;;3.92;100.00;92606.28;6144721;23;20012;-77
2023/11/08 01:54:07;;;;;;;1.00;0.90;;;;;;;3.97;100.00;92614.13;6146185;23;20020;-77
2023/11/08 01:56:34;;;;;;;1.08;0.98;;;;;;;3.98;100.00;92607.13;6144948;23;20016;-77
2023/11/08 01:59:00;;;;;;;0.88;0.88;;;;;;;4.08;100.00;92606.47;6144600;23;20013;-77
2023/11/08 02:01:26;;;;;;;1.00;0.90;;;;;;;4.22;100.00;92609.47;6120615;23;20009;-76
2023/11/08 02:03:55;;;;;;;1.20;0.90;;;;;;;4.16;100.00;92599.03;6144757;23;20479;-77
2023/11/08 02:06:22;;;;;;;1.02;0.90;;;;;;;4.08;100.00;92599.47;6144404;23;20028;-77
2023/11/08 02:08:47;;;;;;;1.05;0.77;;;;;;;4.05;100.00;92604.34;6144666;23;20577;-76
2023/11/08 02:11:13;;;;;;;1.13;1.00;;;;;;;3.99;100.00;92605.34;6144038;23;20017;-77
2023/11/08 02:13:40;;;;;;;1.48;1.05;;;;;;;3.89;100.00;92601.59;6144501;23;20071;-77
2023/11/08 02:16:06;;;;;;;2.60;0.90;;;;;;;3.77;100.00;92593.16;6143754;23;20017;-75
2023/11/08 02:18:32;;;;;;;2.05;0.93;;;;;;;3.67;100.00;92587.84;6145264;23;20274;-75
2023/11/08 02:21:01;;;;;;;2.17;1.17;;;;;;;3.57;100.00;92590.34;6147128;23;20036;-76
2023/11/08 02:23:28;;;;;;;1.98;1.10;;;;;;;3.53;100.00;92592.59;6145693;23;20470;-76
2023/11/08 02:25:54;;;;;;;0.82;0.75;;;;;;;3.53;100.00;92583.06;6145735;23;20059;-77
2023/11/08 02:28:21;;;;;;;1.05;0.90;;;;;;;3.67;100.00;92598.22;6145490;23;20028;-77
2023/11/08 02:30:56;;;;;;;0.88;0.88;;;;;;;3.75;100.00;92590.03;6147808;23;20011;-76
2023/11/08 02:33:26;;;;;;;1.00;0.82;;;;;;;3.82;100.00;92592.44;6145544;23;20355;-77
2023/11/08 02:35:52;;;;;;;1.00;0.90;;;;;;;3.85;100.00;92590.16;6146566;23;20033;-75
2023/11/08 02:38:18;;;;;;;0.85;0.80;;;;;;;3.94;100.00;92596.47;6146455;23;20085;-76
2023/11/08 02:40:47;;;;;;;3.40;1.00;;;;;;;3.97;100.00;92602.97;6146623;23;20044;-77
2023/11/08 02:43:13;;;;;;;1.50;1.08;;;;;;;3.97;100.00;92603.75;6145498;23;20017;-77
2023/11/08 02:45:39;;;;;;;1.27;1.00;;;;;;;4.03;100.00;92591.66;6146985;23;20075;-77
2023/11/08 02:48:08;;;;;;;1.35;0.95;;;;;;;4.03;100.00;92596.03;6146998;23;20473;-77
2023/11/08 02:50:38;;;;;;;0.80;0.80;;;;;;;4.07;100.00;92587.53;6145537;23;20009;-75
2023/11/08 02:53:04;;;;;;;0.80;0.80;;;;;;;4.19;97.32;92584.81;6147453;23;20300;-75
2023/11/08 02:55:31;;;;;;;1.20;1.10;;;;;;;4.33;94.69;92585.22;6147014;23;20498;-77
2023/11/08 02:57:57;;;;;;;0.95;0.90;;;;;;;4.57;88.70;92585.66;6146263;23;20001;-77
2023/11/08 03:00:23;;;;;;;1.90;0.93;;;;;;;4.62;87.57;92593.50;6144681;23;20447;-76
2023/11/08 03:02:51;;;;;;;1.00;0.88;;;;;;;4.70;88.10;92580.06;6146622;23;20014;-77
2023/11/08 03:05:21;;;;;;;1.45;1.10;;;;;;;4.82;83.99;92582.53;6144873;23;20017;-77
2023/11/08 03:07:54;;;;;;;0.73;0.73;;;;;;;4.88;83.90;92598.91;6145183;23;20024;-77
2023/11/08 03:10:21;;;;;;;1.33;1.05;;;;;;;4.85;91.16;92594.22;6145477;23;20024;-77
2023/11/08 03:12:50;;;;;;;1.50;1.00;;;;;;;4.74;92.43;92595.94;6147175;23;20001;-77
2023/11/08 03:15:17;;;;;;;1.20;1.08;;;;;;;4.62;97.80;92592.75;6146972;23;20014;-77
2023/11/08 03:17:44;;;;;;;1.15;1.00;;;;;;;4.48;100.00;92598.31;6146823;23;20017;-76
2023/11/08 03:20:13;;;;;;;0.88;0.88;;;;;;;4.42;97.43;92593.34;6147296;23;20083;-77
2023/11/08 03:22:39;;;;;;;1.92;1.10;;;;;;;4.36;97.20;92598.44;6146838;23;20084;-76
2023/11/08 03:25:06;;;;;;;1.88;1.13;;;;;;;4.31;95.34;92608.78;6145140;23;20086;-77
2023/11/08 03:27:32;;;;;;;1.50;1.02;;;;;;;4.31;95.65;92598.41;6146135;23;20451;-77
2023/11/08 03:29:58;;;;;;;1.25;1.00;;;;;;;4.30;98.16;92606.41;6146847;23;20017;-77
2023/11/08 03:32:27;;;;;;;1.73;0.95;;;;;;;4.21;98.82;92606.09;6147157;23;20527;-76
2023/11/08 03:34:54;;;;;;;1.23;0.88;;;;;;;4.12;97.35;92604.94;6146901;23;20324;-77
2023/11/08 03:37:19;;;;;;;0.90;0.90;;;;;;;4.09;99.30;92595.84;6147060;23;20100;-75
2023/11/08 03:39:46;;;;;;;2.33;0.95;;;;;;;4.03;100.00;92607.19;6146440;23;20455;-77
2023/11/08 03:42:12;;;;;;;1.52;1.00;;;;;;;3.95;99.83;92603.22;6146718;23;20018;-77
2023/11/08 03:44:37;;;;;;;0.82;0.82;;;;;;;3.89;100.00;92611.94;6145061;23;20321;-77
2023/11/08 03:47:05;;;;;;;0.95;0.90;;;;;;;3.87;100.00;92611.44;6146527;23;20006;-77
2023/11/08 03:49:34;;;;;;;1.08;0.90;;;;;;;3.83;98.21;92612.94;6146362;23;20522;-77
2023/11/08 03:52:02;;;;;;;1.60;0.88;;;;;;;3.84;97.20;92609.31;6144788;23;20018;-77
2023/11/08 03:54:28;;;;;;;1.15;1.00;;;;;;;3.81;97.02;92614.19;6146694;23;20044;-77
2023/11/08 03:56:54;;;;;;;1.77;1.00;;;;;;;3.72;100.00;92612.00;6146674;23;20079;-76
2023/11/08 03:59:19;;;;;;;1.42;1.00;;;;;;;3.74;96.91;92609.97;6144726;23;20005;-76
2023/11/08 04:01:48;;;;;;;1.45;1.10;;;;;;;3.80;93.33;92618.56;6146305;23;20107;-76
2023/11/08 04:04:14;;;;;;;0.73;0.73;;;;;;;4.09;86.43;92613.19;6146186;23;20455;-77
2023/11/08 04:06:40;;;;;;;0.95;0.90;;;;;;;4.12;83.14;92616.09;6144620;23;20026;-76
2023/11/08 04:09:08;;;;;;;0.90;0.90;;;;;;;4.16;82.57;92634.53;6146401;23;20548;-77
2023/11/08 04:11:34;;;;;;;0.80;0.80;;;;;;;4.17;79.28;92630.91;6146286;23;20041;-77
2023/11/08 04:13:59;;;;;;;0.88;0.82;;;;;;;4.16;82.14;92626.75;6146319;23;20029;-77
2023/11/08 04:16:25;;;;;;;1.05;0.90;;;;;;;4.10;84.66;92622.56;6147151;23;20561;-77
2023/11/08 04:18:51;;;;;;;0.70;0.70;;;;;;;4.09;82.90;92620.97;6145313;23;20013;-75
2023/11/08 04:21:17;;;;;;;0.68;0.68;;;;;;;4.12;81.11;92625.66;6146556;23;20075;-77
2023/11/08 04:23:43;;;;;;;1.45;0.98;;;;;;;4.11;81.75;92624.88;6144686;23;20015;-77
2023/11/08 04:26:08;;;;;;;1.00;0.90;;;;;;;4.11;82.71;92629.28;6146381;23;20018;-77
2023/11/08 04:28:38;;;;;;;0.85;0.80;;;;;;;4.12;80.69;92626.47;6147257;23;20022;-77
2023/11/08 04:31:04;;;;;;;1.05;0.85;;;;;;;4.09;81.22;92626.16;6144396;23;20048;-77
2023/11/08 04:33:29;;;;;;;0.93;0.90;;;;;;;4.06;82.32;92616.28;6145972;23;20431;-75
2023/11/08 04:35:55;;;;;;;2.20;1.00;;;;;;;4.05;80.72;92622.47;6146825;23;20018;-77
2023/11/08 04:38:20;;;;;;;1.58;0.95;;;;;;;4.07;80.58;92623.81;6146473;23;20389;-76
2023/11/08 04:40:46;;;;;;;2.00;1.02;;;;;;;4.10;79.57;92623.34;6146704;23;20029;-77
2023/11/08 04:43:12;;;;;;;1.25;0.95;;;;;;;4.15;80.10;92625.97;6146076;23;20017;-76
2023/11/08 04:45:37;;;;;;;0.95;0.85;;;;;;;4.21;77.03;92619.06;6146365;23;20020;-76
2023/11/08 04:48:06;;;;;;;0.65;0.65;;;;;;;4.26;74.33;92629.47;6146298;23;20014;-77
2023/11/08 04:50:32;;;;;;;1.08;0.90;;;;;;;4.28;74.36;92619.63;6144508;23;20022;-76
2023/11/08 04:52:57;;;;;;;0.80;0.80;;;;;;;4.36;72.37;92616.59;6145977;23;20335;-76
2023/11/08 04:55:23;;;;;;;1.05;1.00;;;;;;;4.40;72.08;92619.50;6146319;23;20092;-77
2023/11/08 04:57:48;;;;;;;0.88;0.80;;;;;;;4.46;71.71;92628.09;6144868;23;20017;-77
2023/11/08 05:00:14;;;;;;;0.90;0.90;;;;;;;4.43;72.26;92621.59;6146445;23;20136;-77
2023/11/08 05:02:41;;;;;;;1.00;0.90;;;;;;;4.59;68.09;92628.50;6144969;23;20001;-77
2023/11/08 05:05:09;;;;;;;1.25;1.02;;;;;;;4.57;70.80;92627.16;6144839;23;20354;-77
2023/11/08 05:07:35;;;;;;;1.20;0.95;;;;;;;4.50;71.56;92623.97;6145745;23;20013;-76
2023/11/08 05:10:02;;;;;;;0.90;0.85;;;;;;;4.43;72.39;92636.34;6144256;23;20013;-77
2023/11/08 05:12:29;;;;;;;0.85;0.85;;;;;;;4.36;73.47;92637.31;6146912;23;20014;-77
2023/11/08 05:14:54;;;;;;;0.80;0.80;;;;;;;4.31;72.95;92634.69;6146432;23;20052;-77
2023/11/08 05:17:20;;;;;;;0.70;0.70;;;;;;;4.35;70.64;92640.97;6146022;23;20025;-77
2023/11/08 05:19:46;;;;;;;0.93;0.80;;;;;;;4.42;68.89;92651.13;6148534;23;20027;-77
2023/11/08 05:22:12;;;;;;;0.95;0.82;;;;;;;4.39;69.84;92641.25;6145458;23;20010;-77
2023/11/08 05:24:38;;;;;;;0.70;0.70;;;;;;;4.43;68.82;92636.34;6146412;23;20041;-77
2023/11/08 05:27:07;;;;;;;0.80;0.80;;;;;;;4.44;69.92;92643.91;6146278;23;20339;-77
2023/11/08 05:29:33;;;;;;;0.70;0.70;;;;;;;4.44;68.73;92643.91;6145806;23;20404;-77
2023/11/08 05:31:59;;;;;;;1.33;0.90;;;;;;;4.43;70.43;92641.53;6145117;23;20020;-77
2023/11/08 05:34:27;;;;;;;0.98;0.90;;;;;;;4.43;67.87;92641.53;6145662;23;20021;-77
2023/11/08 05:36:53;;;;;;;0.95;0.88;;;;;;;4.45;67.23;92644.69;6144176;23;20108;-76
2023/11/08 05:39:22;;;;;;;1.00;0.90;;;;;;;4.47;68.07;92643.41;6146609;23;19997;-76
2023/11/08 05:41:48;;;;;;;0.85;0.85;;;;;;;4.43;69.80;92641.53;6255679;22;20023;-76
2023/11/08 05:44:15;;;;;;;0.60;0.60;;;;;;;4.37;70.55;92646.69;6270168;22;20011;-77
2023/11/08 05:46:41;;;;;;;1.33;1.00;;;;;;;4.37;66.24;92644.09;6270837;22;20006;-76
2023/11/08 05:49:07;;;;;;;1.00;1.00;;;;;;;4.38;66.63;92648.22;6269380;22;20445;-76
2023/11/08 05:51:34;;;;;;;0.98;0.88;;;;;;;4.50;62.10;92642.13;6270120;22;20087;-77
2023/11/08 05:54:00;;;;;;;1.95;1.20;;;;;;;4.47;65.80;92648.59;6271303;22;20023;-75
2023/11/08 05:56:26;;;;;;;1.40;0.90;;;;;;;4.40;69.01;92647.22;6218678;22;20499;-76
2023/11/08 05:58:52;;;;;;;1.20;1.00;;;;;;;4.38;66.35;92653.41;6270372;22;20027;-76
2023/11/08 06:01:22;;;;;;;1.00;0.90;;;;;;;4.33;66.45;92653.38;6270973;22;20082;-75
2023/11/08 06:03:47;;;;;;;1.00;0.90;;;;;;;4.35;67.46;92646.13;6270953;22;20000;-75
2023/11/08 06:06:13;;;;;;;0.95;0.90;;;;;;;4.32;67.76;92658.78;6270500;22;20026;-75
2023/11/08 06:08:39;;;;;;;1.10;1.00;;;;;;;4.26;69.90;92663.16;6270174;22;20012;-75
2023/11/08 06:11:05;;;;;;;1.33;0.90;;;;;;;4.16;75.46;92663.03;6270641;22;20322;-80
2023/11/08 06:13:35;;;;;;;2.17;1.27;;;;;;;4.13;73.00;92668.69;6269620;22;20391;-75
2023/11/08 06:16:01;;;;;;;1.10;1.00;;;;;;;4.03;76.36;92678.94;6269176;22;20026;-75
2023/11/08 06:18:27;;;;;;;1.25;0.90;;;;;;;4.02;72.98;92672.19;6242979;22;20003;-75
2023/11/08 06:20:53;;;;;;;0.80;0.80;;;;;;;4.06;70.69;92675.88;6270421;22;20057;-74
2023/11/08 06:23:19;;;;;;;0.70;0.70;;;;;;;4.04;72.29;92675.31;6271123;22;20094;-77
2023/11/08 06:25:44;;;;;;;1.00;0.90;;;;;;;4.00;73.85;92682.00;6271331;22;20078;-75
2023/11/08 06:28:10;;;;;;;1.00;0.90;;;;;;;3.91;75.14;92682.41;6270928;22;20020;-75
2023/11/08 06:30:35;;;;;;;0.95;0.82;;;;;;;4.04;74.65;92685.69;6271302;22;20016;-75
2023/11/08 06:33:04;;;;;;;1.60;1.00;;;;;;;5.00;75.86;92690.31;6270633;22;20488;-75
2023/11/08 06:35:30;;;;;;;0.80;0.80;;;;;;;5.97;71.76;92685.81;6272717;22;20303;-78
2023/11/08 06:37:56;;;;;;;1.58;0.90;;;;;;;6.78;70.44;92694.97;6271503;22;20430;-78
2023/11/08 06:40:24;;;;;;;3.13;1.00;;;;;;;7.60;68.18;92699.44;6271389;22;20094;-77
2023/11/08 06:42:50;;;;;;;0.90;0.80;;;;;;;8.42;59.48;92694.84;6272038;22;20054;-78
2023/11/08 06:45:16;;;;;;;1.30;0.98;;;;;;;9.19;56.95;92691.81;6273505;22;20016;-75
2023/11/08 06:47:42;;;;;;;1.05;0.93;;;;;;;9.99;54.25;92693.22;6270644;22;20065;-76
2023/11/08 06:50:10;;;;;;;1.70;1.50;;;;;;;10.74;52.57;92687.47;6270214;22;20453;-76
2023/11/08 06:52:37;;;;;;;1.25;1.00;;;;;;;11.44;52.53;92684.13;6270032;22;20007;-76
2023/11/08 06:55:06;;;;;;;2.28;1.30;;;;;;;11.58;47.75;92688.63;6271404;22;20584;-78
2023/11/08 06:57:32;;;;;;;3.15;1.38;;;;;;;12.09;49.26;92690.41;6270529;22;20061;-75
2023/11/08 06:59:58;;;;;;;1.63;1.20;;;;;;;12.80;52.38;92685.63;6268830;22;20015;-74
2023/11/08 07:02:25;;;;;;;2.17;1.33;;;;;;;13.11;49.04;92687.63;6269457;22;20345;-76
2023/11/08 07:04:50;;;;;;;2.13;1.33;;;;;;;12.97;46.26;92690.28;6269855;22;20212;-76
2023/11/08 07:07:16;;;;;;;2.00;1.20;;;;;;;12.86;47.15;92702.09;6269916;22;20023;-76
2023/11/08 07:09:42;;;;;;;1.67;1.17;;;;;;;13.35;46.67;92695.25;6241763;22;20012;-76
2023/11/08 07:12:08;;;;;;;4.30;1.40;;;;;;;13.79;47.07;92706.09;6270069;22;20026;-76
2023/11/08 07:14:34;;;;;;;3.60;1.17;;;;;;;14.11;48.97;92707.66;6267256;22;20412;-76
2023/11/08 07:17:00;;;;;;;3.03;1.70;;;;;;;14.28;44.01;92707.75;6270055;22;20014;-76
2023/11/08 07:19:27;;;;;;;2.22;1.40;;;;;;;15.61;44.03;92717.22;6267808;22;20007;-75
2023/11/08 07:21:53;;;;;;;3.47;1.60;;;;;;;15.08;41.97;92726.16;6268919;22;20022;-76
2023/11/08 07:24:19;;;;;;;4.72;1.40;;;;;;;16.74;40.93;92721.47;6269466;22;20003;-78
2023/11/08 07:26:47;;;;;;;1.27;0.90;;;;;;;16.30;40.42;92720.06;6242368;22;20090;-76
2023/11/08 07:29:13;;;;;;;2.78;1.65;;;;;;;16.76;43.42;92718.53;6269430;22;20012;-77
2023/11/08 07:31:38;;;;;;;2.63;1.00;;;;;;;16.33;41.15;92728.16;6268856;22;20476;-75
2023/11/08 07:34:07;;;;;;;2.22;1.02;;;;;;;16.90;41.39;92727.03;6269123;22;20075;-75
2023/11/08 07:36:35;;;;;;;2.80;1.23;;;;;;;17.24;38.99;92731.34;6266173;22;20016;-77
2023/11/08 07:39:01;;;;;;;2.80;1.67;;;;;;;17.90;37.31;92724.66;6269458;22;20000;-77
2023/11/08 07:41:30;;;;;;;3.55;1.38;;;;;;;18.21;37.46;92726.84;6270321;22;20015;-77
2023/11/08 07:43:57;;;;;;;1.30;1.10;;;;;;;18.20;33.95;92732.50;6271245;22;20016;-77
2023/11/08 07:46:25;;;;;;;2.85;1.30;;;;;;;18.25;33.46;92737.56;6272243;22;20007;-76
2023/11/08 07:48:55;;;;;;;2.05;1.10;;;;;;;18.40;35.08;92742.25;6272575;22;20425;-77
2023/11/08 07:51:22;;;;;;;1.38;1.02;;;;;;;19.24;32.91;92736.56;6272415;22;20016;-76
2023/11/08 07:53:49;;;;;;;1.42;1.15;;;;;;;18.86;32.34;92743.00;6273301;22;20078;-77
2023/11/08 07:56:15;;;;;;;2.25;0.93;;;;;;;19.06;31.91;92745.88;6272278;22;20402;-77
2023/11/08 07:58:41;;;;;;;1.33;0.90;;;;;;;19.25;31.80;92750.59;6271393;22;19999;-77
2023/11/08 08:01:09;;;;;;;1.70;1.10;;;;;;;19.48;31.54;92750.94;6272530;22;20015;-77
2023/11/08 08:03:35;;;;;;;3.03;1.10;;;;;;;19.53;29.84;92753.34;6272290;22;20327;-77
2023/11/08 08:06:03;;;;;;;1.15;0.95;;;;;;;19.39;31.10;92758.25;6271065;22;20042;-77
2023/11/08 08:08:30;;;;;;;1.20;0.95;;;;;;;20.40;30.51;92757.28;6271369;22;20004;-77
2023/11/08 08:10:55;;;;;;;2.40;0.90;;;;;;;19.90;30.32;92761.25;6270575;22;20416;-76
2023/11/08 08:13:21;;;;;;;1.63;0.90;;;;;;;19.10;30.88;92763.44;6270646;22;19999;-77
2023/11/08 08:15:48;;;;;;;2.70;1.10;;;;;;;20.03;30.73;92760.09;6270645;22;20018;-76
2023/11/08 08:18:14;;;;;;;1.58;0.88;;;;;;;19.80;28.91;92767.03;6271372;22;20006;-77
2023/11/08 08:20:40;;;;;;;1.00;0.77;;;;;;;18.87;31.18;92768.41;6272126;22;20026;-75
2023/11/08 08:23:09;;;;;;;1.92;0.88;;;;;;;17.95;32.02;92764.19;6271285;22;20449;-76
2023/11/08 08:25:42;;;;;;;1.67;1.10;;;;;;;17.80;34.33;92770.03;6243716;22;20367;-76
2023/11/08 08:28:08;;;;;;;2.00;1.30;;;;;;;17.14;36.55;92768.75;6271205;22;20039;-76
2023/11/08 08:30:34;;;;;;;2.55;1.20;;;;;;;16.02;40.61;92779.31;6244274;22;20061;-76
2023/11/08 08:33:01;;;;;;;2.63;1.40;;;;;;;15.30;39.44;92778.00;6245027;22;20015;-76
2023/11/08 08:35:31;;;;;;;1.10;1.00;;;;;;;15.33;43.87;92776.63;6271344;22;20441;-76
2023/11/08 08:37:58;;;;;;;1.77;1.10;;;;;;;14.56;41.92;92776.06;6271494;22;20011;-79
2023/11/08 08:40:24;;;;;;;4.25;1.50;;;;;;;14.41;45.65;92771.16;6271493;22;20480;-77
2023/11/08 08:42:50;;;;;;;1.73;1.20;;;;;;;14.10;44.87;92779.84;6271612;22;20026;-76
2023/11/08 08:45:16;;;;;;;1.67;1.10;;;;;;;12.99;47.75;92779.31;6273189;22;20012;-76
2023/11/08 08:47:41;;;;;;;2.45;1.15;;;;;;;14.08;47.70;92774.88;6276071;22;20043;-78
2023/11/08 08:50:12;;;;;;;2.97;1.30;;;;;;;14.49;43.20;92775.72;6277208;22;20006;-79
2023/11/08 08:52:45;;;;;;;2.92;1.35;;;;;;;14.98;42.84;92777.31;6280675;22;20011;-79
2023/11/08 08:55:13;;;;;;;1.38;0.93;;;;;;;14.70;43.91;92773.34;6279170;22;20445;-79
2023/11/08 08:57:43;;;;;;;1.63;1.15;;;;;;;14.58;37.85;92779.19;6254284;22;20000;-78
2023/11/08 09:00:09;;;;;;;4.10;1.75;;;;;;;14.60;51.85;92778.91;6282048;22;20015;-78
2023/11/08 09:02:37;;;;;;;3.55;1.50;;;;;;;13.92;52.96;92779.72;6280949;22;20004;-78
2023/11/08 09:05:05;;;;;;;3.00;1.50;;;;;;;13.51;57.04;92783.28;6281587;22;20011;-78
2023/11/08 09:07:31;;;;;;;4.78;1.75;;;;;;;13.08;58.09;92782.81;6281709;22;19999;-78
2023/11/08 09:10:04;;;;;;;2.67;1.45;;;;;;;12.52;59.78;92779.44;6281191;22;20011;-78
2023/11/08 09:12:30;;;;;;;5.55;1.77;;;;;;;12.42;59.96;92779.59;6280343;22;20437;-77
2023/11/08 09:14:56;;;;;;;3.67;1.80;;;;;;;11.87;65.66;92781.03;6280889;22;20082;-78
2023/11/08 09:17:23;;;;;;;3.90;1.70;;;;;;;11.69;66.53;92784.41;6280088;22;20347;-78
2023/11/08 09:19:50;;;;;;;3.25;1.75;;;;;;;11.54;64.71;92784.63;6280320;22;20003;-77
2023/11/08 09:22:15;;;;;;;2.65;1.38;;;;;;;11.60;66.79;92784.28;6254363;22;20015;-77
2023/11/08 09:24:41;;;;;;;3.08;1.40;;;;;;;11.81;62.40;92786.59;6280601;22;20057;-78
2023/11/08 09:27:11;;;;;;;2.92;1.60;;;;;;;12.00;61.88;92789.22;6280279;22;20007;-78
2023/11/08 09:29:37;;;;;;;2.25;1.48;;;;;;;11.78;57.18;92784.56;6279575;22;20004;-78
2023/11/08 09:32:03;;;;;;;7.07;1.50;;;;;;;12.01;60.08;92793.41;6250958;22;20026;-77
2023/11/08 09:34:32;;;;;;;2.97;1.40;;;;;;;12.57;57.25;92786.44;6277188;22;20018;-78
2023/11/08 09:37:00;;;;;;;3.13;1.52;;;;;;;12.29;59.98;92795.03;6277428;22;20038;-78
2023/11/08 09:39:28;;;;;;;4.70;1.80;;;;;;;12.46;66.19;92785.81;6277684;22;20058;-79
2023/11/08 09:41:56;;;;;;;5.60;2.00;;;;;;;12.27;64.92;92794.56;6273415;22;20020;-81
2023/11/08 09:44:26;;;;;;;3.47;1.50;;;;;;;12.18;67.85;92788.41;6277814;22;20011;-80
2023/11/08 09:46:55;;;;;;;6.00;1.50;;;;;;;11.96;63.58;92798.75;6279732;22;20015;-79
2023/11/08 09:49:25;;;;;;;4.68;1.60;;;;;;;12.18;63.78;92791.03;6252219;22;20023;-79
2023/11/08 09:51:51;;;;;;;4.57;1.85;;;;;;;11.95;63.02;92799.78;6253830;22;20019;-79
2023/11/08 09:54:17;;;;;;;3.80;1.60;;;;;;;12.04;64.39;92801.47;6227770;22;20008;-80
2023/11/08 09:56:44;;;;;;;3.58;1.48;;;;;;;12.19;64.34;92792.56;6278622;22;20015;-80
2023/11/08 09:59:13;;;;;;;3.42;2.10;;;;;;;12.22;68.53;92797.25;6250658;22;20011;-79
2023/11/08 10:01:40;;;;;;;2.25;1.50;;;;;;;11.67;70.55;92804.91;6275404;22;20007;-79
2023/11/08 10:04:06;;;;;;;4.18;1.80;;;;;;;11.57;74.61;92799.78;6274794;22;20026;-79
2023/11/08 10:06:32;;;;;;;3.95;1.42;;;;;;;11.66;74.70;92798.88;6247731;22;20019;-79
2023/11/08 10:08:58;;;;;;;6.63;1.65;;;;;;;11.77;75.94;92807.38;6248504;22;20441;-78
2023/11/08 10:11:30;;;;;;;3.13;1.48;;;;;;;12.25;68.39;92798.53;6275410;22;20093;-79
2023/11/08 10:13:56;;;;;;;4.03;1.58;;;;;;;11.20;63.60;92809.97;6275331;22;20515;-79
2023/11/08 10:16:23;;;;;;;2.40;1.30;;;;;;;11.42;61.88;92814.69;6275186;22;20007;-77
2023/11/08 10:19:12;;;;;;;8.60;1.50;;;;;;;11.39;58.08;92807.38;6284494;22;20011;-80
2023/11/08 10:21:45;;;;;;;3.03;1.50;;;;;;;11.63;56.37;92811.78;6293245;22;20018;-78
2023/11/08 10:24:19;;;;;;;2.00;1.20;;;;;;;11.61;53.98;92811.28;6291060;22;20090;-78
2023/11/08 10:27:10;;;;;;;1.83;1.17;;;;;;;11.50;55.52;92809.84;6293219;22;20016;-79
2023/11/08 10:29:36;;;;;;;2.97;1.55;;;;;;;11.74;55.05;92807.16;6266411;22;20022;-78
2023/11/08 10:32:17;;;;;;;2.17;1.33;;;;;;;11.86;54.99;92805.66;6292944;22;20043;-79
2023/11/08 10:34:43;;;;;;;2.35;1.40;;;;;;;12.04;53.34;92805.94;6293515;22;20011;-79
2023/11/08 10:37:27;;;;;;;2.80;1.30;;;;;;;12.47;53.13;92788.19;6293406;22;20019;-78
2023/11/08 10:39:57;;;;;;;3.15;1.40;;;;;;;12.32;53.66;92795.53;6294970;22;20019;-79
2023/11/08 10:42:24;;;;;;;2.40;1.40;;;;;;;12.63;55.98;92799.19;6269227;22;20086;-80
2023/11/08 10:44:52;;;;;;;2.85;1.50;;;;;;;12.35;54.60;92800.19;6291697;22;20011;-80
2023/11/08 10:47:18;;;;;;;1.80;1.20;;;;;;;12.31;55.90;92801.84;6269119;22;20011;-79
2023/11/08 10:49:50;;;;;;;2.30;1.30;;;;;;;12.12;57.14;92800.06;6296803;22;20026;-78
2023/11/08 10:52:29;;;;;;;1.80;1.23;;;;;;;12.25;58.42;92788.81;6268028;22;20015;-79
2023/11/08 10:54:54;;;;;;;2.63;1.40;;;;;;;12.44;55.80;92793.97;6295608;22;20012;-78
2023/11/08 10:57:29;;;;;;;3.22;1.20;;;;;;;12.37;56.84;92792.81;6295428;22;20010;-79
2023/11/08 11:00:09;;;;;;;1.77;1.20;;;;;;;12.66;56.57;92788.09;6267827;22;20075;-79
2023/11/08 11:02:48;;;;;;;2.45;1.35;;;;;;;12.41;56.54;92789.31;6294877;22;20038;-79
2023/11/08 11:05:20;;;;;;;1.52;1.20;;;;;;;12.44;57.79;92793.22;6267520;22;20034;-79
2023/11/08 11:07:50;;;;;;;5.20;1.40;;;;;;;12.19;57.56;92782.09;6295152;22;20018;-79
2023/11/08 11:10:17;;;;;;;1.40;1.05;;;;;;;12.29;55.81;92789.78;6294554;22;20068;-78
2023/11/08 11:13:09;;;;;;;4.75;1.55;;;;;;;12.38;55.59;92784.63;6295161;22;20004;-79
2023/11/08 11:16:13;;;;;;;2.85;1.60;;;;;;;12.07;54.58;92792.28;6296436;22;20003;-79
2023/11/08 11:18:49;;;;;;;4.10;1.58;;;;;;;12.19;52.41;92782.09;6294889;22;20007;-79
2023/11/08 11:21:37;;;;;;;1.27;1.08;;;;;;;12.44;53.80;92787.97;6283313;22;20015;-80
2023/11/08 11:24:32;;;;;;;4.05;1.20;;;;;;;12.38;54.42;92786.47;6287236;22;20007;-78
2023/11/08 11:26:58;;;;;;;2.55;1.30;;;;;;;12.42;54.26;92787.47;6290873;22;20004;-79
2023/11/08 11:29:29;;;;;;;1.80;1.15;;;;;;;12.41;54.68;92789.31;6291480;22;20000;-79
2023/11/08 11:31:55;;;;;;;2.20;1.15;;;;;;;12.29;52.31;92781.91;6288135;22;20019;-78
2023/11/08 11:34:20;;;;;;;2.67;1.20;;;;;;;12.19;53.44;92782.09;6291584;22;20110;-78
2023/11/08 11:37:02;;;;;;;3.03;1.15;;;;;;;11.96;52.69;92783.78;6263638;22;20014;-78
2023/11/08 11:39:31;;;;;;;1.35;1.10;;;;;;;11.99;54.63;92782.41;6291981;22;20004;-78